createdAt,value
2017-11-13T00:00:22.225Z,-4.79
2017-11-13T00:01:22.832Z,-4.82
2017-11-13T00:02:23.429Z,-4.84
2017-11-13T00:03:24.031Z,-4.84
2017-11-13T00:04:24.630Z,-4.82
2017-11-13T00:05:25.234Z,-4.85
2017-11-13T00:06:25.837Z,-4.84
2017-11-13T00:07:26.472Z,-4.84
2017-11-13T00:08:27.073Z,-4.77
2017-11-13T00:09:27.678Z,-4.73
2017-11-13T00:10:28.278Z,-4.85
2017-11-13T00:11:28.881Z,-4.81
2017-11-13T00:12:29.480Z,-4.82
2017-11-13T00:13:30.110Z,-4.92
2017-11-13T00:14:30.717Z,-4.99
2017-11-13T00:15:31.311Z,-5.00
2017-11-13T00:16:31.917Z,-4.96
2017-11-13T00:17:32.517Z,-5.03
2017-11-13T00:18:33.120Z,-5.00
2017-11-13T00:19:33.722Z,-4.92
2017-11-13T00:20:34.324Z,-4.99
2017-11-13T00:21:34.926Z,-5.00
2017-11-13T00:22:35.528Z,-5.02
2017-11-13T00:23:36.129Z,-5.13
2017-11-13T00:24:36.730Z,-5.14
2017-11-13T00:25:37.337Z,-5.13
2017-11-13T00:26:37.937Z,-5.10
2017-11-13T00:27:38.539Z,-5.14
2017-11-13T00:28:39.141Z,-4.99
2017-11-13T00:29:39.747Z,-5.03
2017-11-13T00:30:40.352Z,-5.03
2017-11-13T00:31:40.977Z,-4.98
2017-11-13T00:32:41.578Z,-5.06
2017-11-13T00:33:42.210Z,-4.98
2017-11-13T00:34:42.810Z,-5.00
2017-11-13T00:35:43.411Z,-4.92
2017-11-13T00:36:44.020Z,-4.92
2017-11-13T00:37:44.617Z,-5.00
2017-11-13T00:38:45.217Z,-5.02
2017-11-13T00:39:45.816Z,-4.91
2017-11-13T00:40:46.418Z,-4.91
2017-11-13T00:41:47.021Z,-4.85
2017-11-13T00:42:47.624Z,-4.85
2017-11-13T00:43:48.226Z,-4.82
2017-11-13T00:44:48.825Z,-4.79
2017-11-13T00:45:49.433Z,-4.79
2017-11-13T00:46:50.032Z,-4.75
2017-11-13T00:47:50.632Z,-4.71
2017-11-13T00:48:51.233Z,-4.73
2017-11-13T00:49:51.841Z,-4.77
2017-11-13T00:50:52.471Z,-4.81
2017-11-13T00:51:53.069Z,-4.81
2017-11-13T00:52:53.672Z,-4.81
2017-11-13T00:53:54.304Z,-4.87
2017-11-13T00:54:54.905Z,-4.82
2017-11-13T00:55:55.508Z,-4.98
2017-11-13T00:56:56.116Z,-4.95
2017-11-13T00:57:56.751Z,-4.98
2017-11-13T00:58:57.347Z,-5.08
2017-11-13T00:59:57.949Z,-4.99
2017-11-13T01:00:58.549Z,-5.03
2017-11-13T01:01:59.152Z,-5.06
2017-11-13T01:02:59.757Z,-5.02
2017-11-13T01:04:00.357Z,-5.05
2017-11-13T01:05:00.962Z,-5.06
2017-11-13T01:06:01.562Z,-5.10
2017-11-13T01:07:02.174Z,-4.96
2017-11-13T01:08:02.802Z,-4.99
2017-11-13T01:09:03.431Z,-4.96
2017-11-13T01:10:04.047Z,-5.08
2017-11-13T01:11:04.636Z,-5.13
2017-11-13T01:12:05.239Z,-5.09
2017-11-13T01:13:05.870Z,-5.17
2017-11-13T01:14:06.472Z,-5.18
2017-11-13T01:15:07.074Z,-5.17
2017-11-13T01:16:07.676Z,-5.14
2017-11-13T01:17:08.281Z,-5.17
2017-11-13T01:18:08.885Z,-5.06
2017-11-13T01:19:09.488Z,-5.14
2017-11-13T01:20:10.086Z,-5.18
2017-11-13T01:21:10.692Z,-5.28
2017-11-13T01:22:11.290Z,-5.36
2017-11-13T01:23:11.896Z,-5.33
2017-11-13T01:24:12.494Z,-5.33
2017-11-13T01:25:13.101Z,-5.38
2017-11-13T01:26:13.732Z,-5.35
2017-11-13T01:27:14.333Z,-5.29
2017-11-13T01:28:14.934Z,-5.19
2017-11-13T01:29:15.535Z,-5.27
2017-11-13T01:30:16.136Z,-5.22
2017-11-13T01:31:16.742Z,-5.17
2017-11-13T01:32:17.347Z,-5.19
2017-11-13T01:33:17.944Z,-5.14
2017-11-13T01:34:18.546Z,-5.09
2017-11-13T01:35:19.148Z,-5.08
2017-11-13T01:36:19.760Z,-5.08
2017-11-13T01:37:20.377Z,-5.02
2017-11-13T01:38:20.987Z,-5.08
2017-11-13T01:39:21.618Z,-5.00
2017-11-13T01:40:22.218Z,-5.00
2017-11-13T01:41:22.818Z,-5.02
2017-11-13T01:42:23.421Z,-4.95
2017-11-13T01:43:24.020Z,-5.00
2017-11-13T01:44:24.650Z,-4.99
2017-11-13T01:45:25.250Z,-4.91
2017-11-13T01:46:25.855Z,-4.91
2017-11-13T01:47:26.454Z,-4.92
2017-11-13T01:48:27.059Z,-4.89
2017-11-13T01:49:27.667Z,-5.00
2017-11-13T01:50:28.267Z,-4.99
2017-11-13T01:51:28.865Z,-4.96
2017-11-13T01:52:29.467Z,-5.00
2017-11-13T01:53:30.068Z,-5.02
2017-11-13T01:54:30.668Z,-5.06
2017-11-13T01:55:31.274Z,-5.10
2017-11-13T01:56:31.910Z,-5.02
2017-11-13T01:57:32.508Z,-5.02
2017-11-13T01:58:33.108Z,-5.17
2017-11-13T01:59:33.713Z,-5.02
2017-11-13T02:00:34.319Z,-4.99
2017-11-13T02:01:34.951Z,-5.00
2017-11-13T02:02:35.558Z,-5.09
2017-11-13T02:03:36.157Z,-4.99
2017-11-13T02:04:36.759Z,-5.00
2017-11-13T02:05:37.359Z,-5.02
2017-11-13T02:06:37.997Z,-4.98
2017-11-13T02:07:38.630Z,-5.00
2017-11-13T02:08:39.226Z,-5.08
2017-11-13T02:09:39.827Z,-5.00
2017-11-13T02:10:40.428Z,-5.03
2017-11-13T02:11:41.031Z,-5.13
2017-11-13T02:12:41.632Z,-5.13
2017-11-13T02:13:42.233Z,-5.28
2017-11-13T02:14:42.834Z,-5.19
2017-11-13T02:15:43.441Z,-5.24
2017-11-13T02:16:44.044Z,-5.27
2017-11-13T02:17:44.653Z,-5.21
2017-11-13T02:18:45.248Z,-5.33
2017-11-13T02:19:45.854Z,-5.35
2017-11-13T02:20:46.482Z,-5.39
2017-11-13T02:21:47.090Z,-5.36
2017-11-13T02:22:47.687Z,-5.35
2017-11-13T02:23:48.291Z,-5.33
2017-11-13T02:24:48.890Z,-5.35
2017-11-13T02:25:49.492Z,-5.19
2017-11-13T02:26:50.125Z,-5.24
2017-11-13T02:27:50.755Z,-5.25
2017-11-13T02:28:51.358Z,-5.33
2017-11-13T02:29:51.962Z,-5.21
2017-11-13T02:30:52.580Z,-5.21
2017-11-13T02:31:53.169Z,-5.25
2017-11-13T02:32:53.773Z,-5.17
2017-11-13T02:33:54.380Z,-5.19
2017-11-13T02:34:54.976Z,-5.17
2017-11-13T02:35:55.584Z,-5.06
2017-11-13T02:36:56.183Z,-5.00
2017-11-13T02:37:56.784Z,-5.10
2017-11-13T02:38:57.383Z,-5.02
2017-11-13T02:39:58.017Z,-5.10
2017-11-13T02:40:58.625Z,-5.03
2017-11-13T02:41:59.225Z,-5.00
2017-11-13T02:42:59.825Z,-5.13
2017-11-13T02:44:00.455Z,-5.14
2017-11-13T02:45:01.057Z,-5.00
2017-11-13T02:46:01.657Z,-5.06
2017-11-13T02:47:02.265Z,-5.02
2017-11-13T02:48:02.861Z,-4.99
2017-11-13T02:49:03.463Z,-5.06
2017-11-13T02:50:04.074Z,-5.10
2017-11-13T02:51:04.671Z,-5.05
2017-11-13T02:52:05.274Z,-5.10
2017-11-13T02:53:05.903Z,-5.10
2017-11-13T02:54:06.505Z,-5.08
2017-11-13T02:55:07.110Z,-5.05
2017-11-13T02:56:07.707Z,-5.03
2017-11-13T02:57:08.311Z,-5.13
2017-11-13T02:58:08.921Z,-5.03
2017-11-13T02:59:09.543Z,-5.00
2017-11-13T03:00:10.148Z,-5.05
2017-11-13T03:01:10.752Z,-5.06
2017-11-13T03:02:11.357Z,-5.18
2017-11-13T03:03:11.957Z,-5.00
2017-11-13T03:04:12.562Z,-5.08
2017-11-13T03:05:13.162Z,-5.17
2017-11-13T03:06:13.769Z,-5.13
2017-11-13T03:07:14.369Z,-5.09
2017-11-13T03:08:15.001Z,-5.14
2017-11-13T03:09:15.580Z,-5.08
2017-11-13T03:10:16.219Z,-5.09
2017-11-13T03:11:16.823Z,-5.00
2017-11-13T03:12:17.421Z,-5.10
2017-11-13T03:13:18.023Z,-5.14
2017-11-13T03:14:18.624Z,-5.18
2017-11-13T03:15:19.224Z,-5.19
2017-11-13T03:16:19.831Z,-5.36
2017-11-13T03:17:20.430Z,-5.33
2017-11-13T03:18:21.037Z,-5.28
2017-11-13T03:19:21.636Z,-5.35
2017-11-13T03:20:22.242Z,-5.38
2017-11-13T03:21:22.846Z,-5.38
2017-11-13T03:22:23.444Z,-5.33
2017-11-13T03:23:24.076Z,-5.27
2017-11-13T03:24:24.677Z,-5.31
2017-11-13T03:25:25.284Z,-5.17
2017-11-13T03:26:25.881Z,-5.22
2017-11-13T03:27:26.521Z,-5.22
2017-11-13T03:28:27.153Z,-5.25
2017-11-13T03:29:27.752Z,-5.17
2017-11-13T03:30:28.354Z,-5.25
2017-11-13T03:31:28.953Z,-5.19
2017-11-13T03:32:29.557Z,-5.22
2017-11-13T03:33:30.158Z,-5.33
2017-11-13T03:34:30.759Z,-5.31
2017-11-13T03:35:31.366Z,-5.31
2017-11-13T03:36:32.001Z,-5.31
2017-11-13T03:37:32.600Z,-5.40
2017-11-13T03:38:33.201Z,-5.40
2017-11-13T03:39:33.801Z,-5.38
2017-11-13T03:40:34.431Z,-5.40
2017-11-13T03:41:35.033Z,-5.42
2017-11-13T03:42:35.665Z,-5.40
2017-11-13T03:43:36.293Z,-5.39
2017-11-13T03:44:36.903Z,-5.49
2017-11-13T03:45:37.497Z,-5.49
2017-11-13T03:46:38.102Z,-5.49
2017-11-13T03:47:38.699Z,-5.51
2017-11-13T03:48:39.297Z,-5.53
2017-11-13T03:49:39.902Z,-5.42
2017-11-13T03:50:40.499Z,-5.38
2017-11-13T03:51:41.101Z,-5.38
2017-11-13T03:52:41.705Z,-5.24
2017-11-13T03:53:42.343Z,-5.19
2017-11-13T03:54:42.941Z,-5.18
2017-11-13T03:55:43.542Z,-5.19
2017-11-13T03:56:44.174Z,-5.19
2017-11-13T03:57:44.810Z,-5.28
2017-11-13T03:58:45.411Z,-5.17
2017-11-13T03:59:46.047Z,-5.17
2017-11-13T04:00:46.683Z,-5.21
2017-11-13T04:01:47.285Z,-5.27
2017-11-13T04:02:47.887Z,-5.21
2017-11-13T04:03:48.488Z,-5.21
2017-11-13T04:04:49.119Z,-5.33
2017-11-13T04:05:49.721Z,-5.42
2017-11-13T04:06:50.328Z,-5.36
2017-11-13T04:07:50.929Z,-5.33
2017-11-13T04:08:51.527Z,-5.29
2017-11-13T04:09:52.128Z,-5.31
2017-11-13T04:10:52.764Z,-5.29
2017-11-13T04:11:53.361Z,-5.35
2017-11-13T04:12:53.962Z,-5.38
2017-11-13T04:13:54.560Z,-5.31
2017-11-13T04:14:55.191Z,-5.28
2017-11-13T04:15:55.794Z,-5.39
2017-11-13T04:16:56.405Z,-5.29
2017-11-13T04:17:56.994Z,-5.35
2017-11-13T04:18:57.626Z,-5.35
2017-11-13T04:19:58.230Z,-5.29
2017-11-13T04:20:58.831Z,-5.35
2017-11-13T04:21:59.437Z,-5.33
2017-11-13T04:23:00.036Z,-5.19
2017-11-13T04:24:00.640Z,-5.25
2017-11-13T04:25:01.240Z,-5.19
2017-11-13T04:26:01.838Z,-5.21
2017-11-13T04:27:02.439Z,-5.22
2017-11-13T04:28:03.039Z,-5.21
2017-11-13T04:29:03.645Z,-5.21
2017-11-13T04:30:04.244Z,-5.25
2017-11-13T04:31:04.856Z,-5.22
2017-11-13T04:32:05.448Z,-5.14
2017-11-13T04:33:06.049Z,-5.24
2017-11-13T04:34:06.651Z,-5.21
2017-11-13T04:35:07.252Z,-5.29
2017-11-13T04:36:07.853Z,-5.33
2017-11-13T04:37:08.457Z,-5.21
2017-11-13T04:38:09.056Z,-5.33
2017-11-13T04:39:09.664Z,-5.31
2017-11-13T04:40:10.263Z,-5.35
2017-11-13T04:41:10.867Z,-5.27
2017-11-13T04:42:11.516Z,-5.28
2017-11-13T04:43:12.116Z,-5.28
2017-11-13T04:44:12.718Z,-5.35
2017-11-13T04:45:13.319Z,-5.31
2017-11-13T04:46:13.927Z,-5.33
2017-11-13T04:47:14.525Z,-5.33
2017-11-13T04:48:15.129Z,-5.24
2017-11-13T04:49:15.726Z,-5.19
2017-11-13T04:50:16.332Z,-5.27
2017-11-13T04:51:16.930Z,-5.24
2017-11-13T04:52:17.532Z,-5.14
2017-11-13T04:53:18.139Z,-5.10
2017-11-13T04:54:18.743Z,-5.17
2017-11-13T04:55:19.342Z,-4.99
2017-11-13T04:56:19.946Z,-5.17
2017-11-13T04:57:20.544Z,-5.06
2017-11-13T04:58:21.144Z,-5.08
2017-11-13T04:59:21.746Z,-5.08
2017-11-13T05:00:22.344Z,-5.14
2017-11-13T05:01:22.951Z,-5.14
2017-11-13T05:02:23.552Z,-5.27
2017-11-13T05:03:24.153Z,-5.29
2017-11-13T05:04:24.751Z,-5.22
2017-11-13T05:05:25.354Z,-5.28
2017-11-13T05:06:25.954Z,-5.36
2017-11-13T05:07:26.555Z,-5.24
2017-11-13T05:08:27.158Z,-5.36
2017-11-13T05:09:27.759Z,-5.31
2017-11-13T05:10:28.391Z,-5.28
2017-11-13T05:11:29.020Z,-5.18
2017-11-13T05:12:29.621Z,-5.25
2017-11-13T05:13:30.223Z,-5.19
2017-11-13T05:14:30.828Z,-5.22
2017-11-13T05:15:31.423Z,-5.19
2017-11-13T05:16:32.026Z,-5.19
2017-11-13T05:17:32.628Z,-5.28
2017-11-13T05:18:33.233Z,-5.21
2017-11-13T05:19:33.869Z,-5.14
2017-11-13T05:20:34.466Z,-5.21
2017-11-13T05:21:35.071Z,-5.27
2017-11-13T05:22:35.670Z,-5.22
2017-11-13T05:23:36.272Z,-5.21
2017-11-13T05:24:36.873Z,-5.27
2017-11-13T05:25:37.475Z,-5.29
2017-11-13T05:26:38.112Z,-5.21
2017-11-13T05:27:38.715Z,-5.36
2017-11-13T05:28:39.322Z,-5.31
2017-11-13T05:29:39.950Z,-5.25
2017-11-13T05:30:40.584Z,-5.18
2017-11-13T05:31:41.186Z,-5.21
2017-11-13T05:32:41.786Z,-5.18
2017-11-13T05:33:42.404Z,-5.08
2017-11-13T05:34:42.995Z,-5.17
2017-11-13T05:35:43.595Z,-5.02
2017-11-13T05:36:44.201Z,-5.02
2017-11-13T05:37:44.832Z,-5.05
2017-11-13T05:38:45.432Z,-5.00
2017-11-13T05:39:46.032Z,-4.98
2017-11-13T05:40:46.637Z,-5.05
2017-11-13T05:41:47.233Z,-5.05
2017-11-13T05:42:47.837Z,-5.03
2017-11-13T05:43:48.438Z,-5.06
2017-11-13T05:44:49.039Z,-5.10
2017-11-13T05:45:49.641Z,-5.13
2017-11-13T05:46:50.243Z,-5.17
2017-11-13T05:47:50.881Z,-5.06
2017-11-13T05:48:51.478Z,-5.06
2017-11-13T05:49:52.082Z,-5.00
2017-11-13T05:50:52.684Z,-5.09
2017-11-13T05:51:53.317Z,-5.00
2017-11-13T05:52:53.916Z,-5.05
2017-11-13T05:53:54.517Z,-5.19
2017-11-13T05:54:55.119Z,-5.17
2017-11-13T05:55:55.722Z,-5.17
2017-11-13T05:56:56.325Z,-5.17
2017-11-13T05:57:56.929Z,-5.14
2017-11-13T05:58:57.528Z,-5.18
2017-11-13T05:59:58.131Z,-5.19
2017-11-13T06:00:58.731Z,-5.17
2017-11-13T06:01:59.331Z,-5.05
2017-11-13T06:02:59.933Z,-5.00
2017-11-13T06:04:00.565Z,-5.08
2017-11-13T06:05:01.172Z,-5.06
2017-11-13T06:06:01.771Z,-5.03
2017-11-13T06:07:02.375Z,-5.02
2017-11-13T06:08:02.976Z,-5.06
2017-11-13T06:09:03.575Z,-4.98
2017-11-13T06:10:04.208Z,-5.02
2017-11-13T06:11:04.841Z,-4.99
2017-11-13T06:12:05.443Z,-4.96
2017-11-13T06:13:06.043Z,-4.98
2017-11-13T06:14:06.650Z,-5.03
2017-11-13T06:15:07.248Z,-5.02
2017-11-13T06:16:07.854Z,-5.02
2017-11-13T06:17:08.453Z,-5.00
2017-11-13T06:18:09.058Z,-5.00
2017-11-13T06:19:09.658Z,-4.95
2017-11-13T06:20:10.260Z,-4.96
2017-11-13T06:21:10.860Z,-4.95
2017-11-13T06:22:11.469Z,-4.91
2017-11-13T06:23:12.086Z,-4.99
2017-11-13T06:24:12.673Z,-5.05
2017-11-13T06:25:13.270Z,-4.96
2017-11-13T06:26:13.870Z,-5.02
2017-11-13T06:27:14.474Z,-5.08
2017-11-13T06:28:15.105Z,-5.03
2017-11-13T06:29:15.715Z,-5.09
2017-11-13T06:30:16.314Z,-5.09
2017-11-13T06:31:16.920Z,-5.19
2017-11-13T06:32:17.532Z,-5.19
2017-11-13T06:33:18.122Z,-5.21
2017-11-13T06:34:18.722Z,-5.25
2017-11-13T06:35:19.323Z,-5.22
2017-11-13T06:36:19.923Z,-5.21
2017-11-13T06:37:20.524Z,-5.36
2017-11-13T06:38:21.128Z,-5.35
2017-11-13T06:39:21.734Z,-5.33
2017-11-13T06:40:22.338Z,-5.21
2017-11-13T06:41:22.946Z,-5.31
2017-11-13T06:42:23.541Z,-5.33
2017-11-13T06:43:24.142Z,-5.43
2017-11-13T06:44:24.742Z,-5.43
2017-11-13T06:45:25.346Z,-5.51
2017-11-13T06:46:25.977Z,-5.57
2017-11-13T06:47:26.609Z,-5.53
2017-11-13T06:48:27.210Z,-5.51
2017-11-13T06:49:27.813Z,-5.53
2017-11-13T06:50:28.416Z,-5.40
2017-11-13T06:51:29.020Z,-5.42
2017-11-13T06:52:29.620Z,-5.35
2017-11-13T06:53:30.252Z,-5.38
2017-11-13T06:54:30.854Z,-5.28
2017-11-13T06:55:31.456Z,-5.33
2017-11-13T06:56:32.059Z,-5.33
2017-11-13T06:57:32.662Z,-5.35
2017-11-13T06:58:33.263Z,-5.35
2017-11-13T06:59:33.870Z,-5.18
2017-11-13T07:00:34.471Z,-5.27
2017-11-13T07:01:35.076Z,-5.19
2017-11-13T07:02:35.684Z,-5.18
2017-11-13T07:03:36.287Z,-5.09
2017-11-13T07:04:36.895Z,-5.06
2017-11-13T07:05:37.501Z,-5.02
2017-11-13T07:06:38.105Z,-5.08
2017-11-13T07:07:38.704Z,-5.13
2017-11-13T07:08:39.306Z,-5.28
2017-11-13T07:09:39.906Z,-5.21
2017-11-13T07:10:40.507Z,-5.35
2017-11-13T07:11:41.111Z,-5.29
2017-11-13T07:12:41.715Z,-5.38
2017-11-13T07:13:42.320Z,-5.39
2017-11-13T07:14:42.924Z,-5.53
2017-11-13T07:15:43.524Z,-5.56
2017-11-13T07:16:44.125Z,-5.64
2017-11-13T07:17:44.726Z,-5.71
2017-11-13T07:18:45.330Z,-5.66
2017-11-13T07:19:45.932Z,-5.75
2017-11-13T07:20:46.547Z,-5.75
2017-11-13T07:21:47.146Z,-5.79
2017-11-13T07:22:47.751Z,-5.67
2017-11-13T07:23:48.346Z,-5.72
2017-11-13T07:24:48.958Z,-5.72
2017-11-13T07:25:49.581Z,-5.71
2017-11-13T07:26:50.216Z,-5.84
2017-11-13T07:27:50.854Z,-5.66
2017-11-13T07:28:51.453Z,-5.84
2017-11-13T07:29:52.054Z,-5.75
2017-11-13T07:30:52.657Z,-5.71
2017-11-13T07:31:53.259Z,-5.71
2017-11-13T07:32:53.858Z,-5.60
2017-11-13T07:33:54.461Z,-5.64
2017-11-13T07:34:55.069Z,-5.76
2017-11-13T07:35:55.701Z,-5.76
2017-11-13T07:36:56.302Z,-5.75
2017-11-13T07:37:56.904Z,-5.71
2017-11-13T07:38:57.513Z,-5.84
2017-11-13T07:39:58.118Z,-5.75
2017-11-13T07:40:58.738Z,-5.72
2017-11-13T07:41:59.359Z,-5.61
2017-11-13T07:42:59.960Z,-5.66
2017-11-13T07:44:00.564Z,-5.60
2017-11-13T07:45:01.170Z,-5.58
2017-11-13T07:46:01.780Z,-5.53
2017-11-13T07:47:02.418Z,-5.47
2017-11-13T07:48:03.037Z,-5.60
2017-11-13T07:49:03.631Z,-5.58
2017-11-13T07:50:04.230Z,-5.56
2017-11-13T07:51:04.842Z,-5.63
2017-11-13T07:52:05.444Z,-5.57
2017-11-13T07:53:06.053Z,-5.51
2017-11-13T07:54:06.657Z,-5.46
2017-11-13T07:55:07.257Z,-5.54
2017-11-13T07:56:07.861Z,-5.51
2017-11-13T07:57:08.464Z,-5.54
2017-11-13T07:58:09.068Z,-5.54
2017-11-13T07:59:09.672Z,-5.49
2017-11-13T08:00:10.313Z,-5.43
2017-11-13T08:01:10.943Z,-5.40
2017-11-13T08:02:11.546Z,-5.29
2017-11-13T08:03:12.181Z,-5.36
2017-11-13T08:04:12.782Z,-5.33
2017-11-13T08:05:13.392Z,-5.25
2017-11-13T08:06:14.002Z,-5.36
2017-11-13T08:07:14.602Z,-5.28
2017-11-13T08:08:15.211Z,-5.35
2017-11-13T08:09:15.813Z,-5.33
2017-11-13T08:10:16.445Z,-5.31
2017-11-13T08:11:17.046Z,-5.18
2017-11-13T08:12:17.653Z,-5.25
2017-11-13T08:13:18.256Z,-5.24
2017-11-13T08:14:18.865Z,-5.21
2017-11-13T08:15:19.473Z,-5.28
2017-11-13T08:16:20.075Z,-5.17
2017-11-13T08:17:20.681Z,-5.13
2017-11-13T08:18:21.299Z,-5.03
2017-11-13T08:19:21.905Z,-4.98
2017-11-13T08:20:22.514Z,-5.05
2017-11-13T08:21:23.114Z,-5.05
2017-11-13T08:22:23.718Z,-5.00
2017-11-13T08:23:24.325Z,-5.14
2017-11-13T08:24:24.979Z,-5.10
2017-11-13T08:25:25.590Z,-5.13
2017-11-13T08:26:26.195Z,-5.17
2017-11-13T08:27:26.797Z,-5.25
2017-11-13T08:28:27.406Z,-5.19
2017-11-13T08:29:28.010Z,-5.40
2017-11-13T08:30:28.612Z,-5.36
2017-11-13T08:31:29.218Z,-5.35
2017-11-13T08:32:29.823Z,-5.39
2017-11-13T08:33:30.426Z,-5.40
2017-11-13T08:34:31.061Z,-5.43
2017-11-13T08:35:31.665Z,-5.40
2017-11-13T08:36:32.294Z,-5.43
2017-11-13T08:37:32.883Z,-5.35
2017-11-13T08:38:33.481Z,-5.40
2017-11-13T08:39:34.086Z,-5.42
2017-11-13T08:40:34.688Z,-5.42
2017-11-13T08:41:35.293Z,-5.46
2017-11-13T08:42:35.897Z,-5.42
2017-11-13T08:43:36.502Z,-5.35
2017-11-13T08:44:37.106Z,-5.33
2017-11-13T08:45:37.714Z,-5.29
2017-11-13T08:46:38.318Z,-5.24
2017-11-13T08:47:38.921Z,-5.17
2017-11-13T08:48:39.526Z,-5.25
2017-11-13T08:49:40.129Z,-5.17
2017-11-13T08:50:40.734Z,-5.14
2017-11-13T08:51:41.338Z,-5.14
2017-11-13T08:52:41.951Z,-5.05
2017-11-13T08:53:42.553Z,-5.02
2017-11-13T08:54:43.191Z,-4.99
2017-11-13T08:55:43.796Z,-5.00
2017-11-13T08:56:44.396Z,-5.00
2017-11-13T08:57:45.008Z,-5.00
2017-11-13T08:58:45.610Z,-5.13
2017-11-13T08:59:46.220Z,-5.00
2017-11-13T09:00:46.821Z,-5.06
2017-11-13T09:01:47.429Z,-5.09
2017-11-13T09:02:48.039Z,-5.03
2017-11-13T09:03:48.638Z,-5.08
2017-11-13T09:04:49.248Z,-4.96
2017-11-13T09:05:49.849Z,-4.98
2017-11-13T09:06:50.460Z,-4.95
2017-11-13T09:07:51.062Z,-4.95
2017-11-13T09:08:51.666Z,-4.91
2017-11-13T09:09:52.270Z,-4.92
2017-11-13T09:10:52.909Z,-4.91
2017-11-13T09:11:53.510Z,-4.98
2017-11-13T09:12:54.115Z,-4.98
2017-11-13T09:13:54.723Z,-4.98
2017-11-13T09:14:55.331Z,-5.05
2017-11-13T09:15:55.942Z,-5.08
2017-11-13T09:16:56.545Z,-4.96
2017-11-13T09:17:57.147Z,-4.91
2017-11-13T09:18:57.758Z,-4.84
2017-11-13T09:19:58.394Z,-4.73
2017-11-13T09:20:58.996Z,-4.69
2017-11-13T09:21:59.605Z,-4.66
2017-11-13T09:23:00.205Z,-4.64
2017-11-13T09:24:00.810Z,-4.64
2017-11-13T09:25:01.420Z,-4.64
2017-11-13T09:26:02.053Z,-4.75
2017-11-13T09:27:02.657Z,-4.81
2017-11-13T09:28:03.261Z,-4.82
2017-11-13T09:29:03.872Z,-4.91
2017-11-13T09:30:04.474Z,-4.79
2017-11-13T09:31:05.079Z,-4.73
2017-11-13T09:32:05.682Z,-4.71
2017-11-13T09:33:06.293Z,-4.64
2017-11-13T09:34:06.897Z,-4.75
2017-11-13T09:35:07.539Z,-4.59
2017-11-13T09:36:08.145Z,-4.55
2017-11-13T09:37:08.749Z,-4.41
2017-11-13T09:38:09.359Z,-4.42
2017-11-13T09:39:09.992Z,-4.46
2017-11-13T09:40:10.596Z,-4.59
2017-11-13T09:41:11.204Z,-4.60
2017-11-13T09:42:11.805Z,-4.59
2017-11-13T09:43:12.416Z,-4.45
2017-11-13T09:44:13.016Z,-4.46
2017-11-13T09:45:13.672Z,-4.42
2017-11-13T09:46:14.277Z,-4.34
2017-11-13T09:47:14.884Z,-4.30
2017-11-13T09:48:15.487Z,-4.28
2017-11-13T09:49:16.098Z,-4.09
2017-11-13T09:50:16.761Z,-4.10
2017-11-13T09:51:17.368Z,-4.24
2017-11-13T09:52:17.970Z,-4.24
2017-11-13T09:53:18.577Z,-4.25
2017-11-13T09:54:19.209Z,-4.28
2017-11-13T09:55:19.813Z,-4.32
2017-11-13T09:56:20.447Z,-4.39
2017-11-13T09:57:21.089Z,-4.34
2017-11-13T09:58:21.691Z,-4.35
2017-11-13T09:59:22.297Z,-4.30
2017-11-13T10:00:22.959Z,-4.21
2017-11-13T10:01:23.570Z,-4.14
2017-11-13T10:02:24.176Z,-4.04
2017-11-13T10:03:24.777Z,-4.03
2017-11-13T10:04:25.386Z,-4.02
2017-11-13T10:05:25.997Z,-4.04
2017-11-13T10:06:26.597Z,-3.86
2017-11-13T10:07:27.233Z,-3.89
2017-11-13T10:08:27.842Z,-3.89
2017-11-13T10:09:28.449Z,-3.83
2017-11-13T10:10:29.052Z,-3.89
2017-11-13T10:11:29.664Z,-3.86
2017-11-13T10:12:30.272Z,-3.85
2017-11-13T10:13:30.890Z,-3.91
2017-11-13T10:14:31.486Z,-4.10
2017-11-13T10:15:32.146Z,-4.09
2017-11-13T10:16:32.752Z,-4.25
2017-11-13T10:17:33.355Z,-4.22
2017-11-13T10:18:33.965Z,-4.22
2017-11-13T10:19:34.568Z,-4.17
2017-11-13T10:20:35.221Z,-3.99
2017-11-13T10:21:35.859Z,-3.91
2017-11-13T10:22:36.463Z,-3.91
2017-11-13T10:23:37.070Z,-3.89
2017-11-13T10:24:37.681Z,-3.82
2017-11-13T10:25:38.282Z,-3.85
2017-11-13T10:26:38.888Z,-3.77
2017-11-13T10:27:39.499Z,-3.77
2017-11-13T10:28:40.129Z,-3.80
2017-11-13T10:29:40.765Z,-3.72
2017-11-13T10:30:41.372Z,-3.72
2017-11-13T10:31:42.009Z,-3.78
2017-11-13T10:32:42.616Z,-3.69
2017-11-13T10:33:43.220Z,-3.67
2017-11-13T10:34:43.832Z,-3.63
2017-11-13T10:35:44.434Z,-3.51
2017-11-13T10:36:45.039Z,-3.46
2017-11-13T10:37:45.647Z,-3.34
2017-11-13T10:38:46.255Z,-3.31
2017-11-13T10:39:46.859Z,-3.22
2017-11-13T10:40:47.463Z,-3.13
2017-11-13T10:41:48.068Z,-3.10
2017-11-13T10:42:48.676Z,-3.02
2017-11-13T10:43:49.283Z,-3.07
2017-11-13T10:44:49.889Z,-3.06
2017-11-13T10:45:50.500Z,-3.02
2017-11-13T10:46:51.104Z,-2.92
2017-11-13T10:47:51.710Z,-2.89
2017-11-13T10:48:52.315Z,-2.77
2017-11-13T10:49:52.922Z,-2.88
2017-11-13T10:50:53.535Z,-2.78
2017-11-13T10:51:54.137Z,-2.73
2017-11-13T10:52:54.750Z,-2.56
2017-11-13T10:53:55.395Z,-2.55
2017-11-13T10:54:55.999Z,-2.62
2017-11-13T10:55:56.608Z,-2.73
2017-11-13T10:56:57.252Z,-2.63
2017-11-13T10:57:57.860Z,-2.59
2017-11-13T10:58:58.466Z,-2.48
2017-11-13T10:59:59.105Z,-2.58
2017-11-13T11:00:59.712Z,-2.76
2017-11-13T11:02:00.318Z,-2.95
2017-11-13T11:03:00.925Z,-2.94
2017-11-13T11:04:01.536Z,-2.92
2017-11-13T11:05:02.147Z,-3.10
2017-11-13T11:06:02.749Z,-2.99
2017-11-13T11:07:03.362Z,-2.84
2017-11-13T11:08:03.966Z,-2.94
2017-11-13T11:09:04.575Z,-2.77
2017-11-13T11:10:05.180Z,-2.94
2017-11-13T11:11:05.804Z,-3.01
2017-11-13T11:12:06.422Z,-3.04
2017-11-13T11:13:07.026Z,-2.98
2017-11-13T11:14:07.638Z,-2.97
2017-11-13T11:15:08.274Z,-2.91
2017-11-13T11:16:08.923Z,-2.97
2017-11-13T11:17:09.522Z,-2.95
2017-11-13T11:18:10.129Z,-2.99
2017-11-13T11:19:10.739Z,-2.86
2017-11-13T11:20:11.341Z,-2.88
2017-11-13T11:21:11.948Z,-2.74
2017-11-13T11:22:12.558Z,-2.74
2017-11-13T11:23:13.161Z,-2.70
2017-11-13T11:24:13.767Z,-2.69
2017-11-13T11:25:14.378Z,-2.76
2017-11-13T11:26:15.015Z,-2.76
2017-11-13T11:27:15.625Z,-2.69
2017-11-13T11:28:16.225Z,-2.73
2017-11-13T11:29:16.833Z,-2.74
2017-11-13T11:30:17.445Z,-2.70
2017-11-13T11:31:18.048Z,-2.65
2017-11-13T11:32:18.686Z,-2.74
2017-11-13T11:33:19.290Z,-2.55
2017-11-13T11:34:19.899Z,-2.50
2017-11-13T11:35:20.536Z,-2.38
2017-11-13T11:36:21.145Z,-2.40
2017-11-13T11:37:21.776Z,-2.38
2017-11-13T11:38:22.388Z,-2.45
2017-11-13T11:39:22.995Z,-2.47
2017-11-13T11:40:23.599Z,-2.50
2017-11-13T11:41:24.207Z,-2.53
2017-11-13T11:42:24.818Z,-2.58
2017-11-13T11:43:25.421Z,-2.73
2017-11-13T11:44:26.025Z,-2.70
2017-11-13T11:45:26.633Z,-2.71
2017-11-13T11:46:27.241Z,-2.71
2017-11-13T11:47:27.846Z,-2.74
2017-11-13T11:48:28.452Z,-2.60
2017-11-13T11:49:29.057Z,-2.65
2017-11-13T11:50:29.669Z,-2.66
2017-11-13T11:51:30.273Z,-2.65
2017-11-13T11:52:30.881Z,-2.76
2017-11-13T11:53:31.487Z,-2.80
2017-11-13T11:54:32.092Z,-2.73
2017-11-13T11:55:32.730Z,-2.66
2017-11-13T11:56:33.335Z,-2.60
2017-11-13T11:57:33.961Z,-2.56
2017-11-13T11:58:34.553Z,-2.55
2017-11-13T11:59:35.159Z,-2.50
2017-11-13T12:00:35.767Z,-2.53
2017-11-13T12:01:36.377Z,-2.59
2017-11-13T12:02:37.010Z,-2.56
2017-11-13T12:03:37.617Z,-2.66
2017-11-13T12:04:38.224Z,-2.65
2017-11-13T12:05:38.836Z,-2.71
2017-11-13T12:06:39.438Z,-2.77
2017-11-13T12:07:40.080Z,-2.83
2017-11-13T12:08:40.676Z,-2.76
2017-11-13T12:09:41.281Z,-2.78
2017-11-13T12:10:41.887Z,-2.83
2017-11-13T12:11:42.495Z,-2.86
2017-11-13T12:12:43.100Z,-2.98
2017-11-13T12:13:43.712Z,-2.89
2017-11-13T12:14:44.313Z,-2.83
2017-11-13T12:15:44.920Z,-2.84
2017-11-13T12:16:45.526Z,-2.78
2017-11-13T12:17:46.131Z,-2.81
2017-11-13T12:18:46.740Z,-2.69
2017-11-13T12:19:47.346Z,-2.77
2017-11-13T12:20:47.956Z,-2.77
2017-11-13T12:21:48.559Z,-2.78
2017-11-13T12:22:49.172Z,-2.86
2017-11-13T12:23:49.774Z,-2.94
2017-11-13T12:24:50.418Z,-2.98
2017-11-13T12:25:51.027Z,-3.01
2017-11-13T12:26:51.628Z,-3.04
2017-11-13T12:27:52.276Z,-2.99
2017-11-13T12:28:52.870Z,-3.07
2017-11-13T12:29:53.476Z,-3.13
2017-11-13T12:30:54.083Z,-3.23
2017-11-13T12:31:54.689Z,-3.25
2017-11-13T12:32:55.295Z,-3.27
2017-11-13T12:33:55.901Z,-3.17
2017-11-13T12:34:56.504Z,-3.09
2017-11-13T12:35:57.112Z,-2.99
2017-11-13T12:36:57.720Z,-2.92
2017-11-13T12:37:58.326Z,-2.89
2017-11-13T12:38:58.963Z,-2.88
2017-11-13T12:39:59.630Z,-2.98
2017-11-13T12:41:00.246Z,-2.92
2017-11-13T12:42:00.849Z,-3.04
2017-11-13T12:43:01.463Z,-3.02
2017-11-13T12:44:02.075Z,-3.04
2017-11-13T12:45:02.675Z,-3.07
2017-11-13T12:46:03.278Z,-3.10
2017-11-13T12:47:03.885Z,-3.02
2017-11-13T12:48:04.495Z,-3.07
2017-11-13T12:49:05.096Z,-2.94
2017-11-13T12:50:05.709Z,-2.92
2017-11-13T12:51:06.312Z,-2.88
2017-11-13T12:52:06.923Z,-2.98
2017-11-13T12:53:07.526Z,-3.02
2017-11-13T12:54:08.138Z,-3.07
2017-11-13T12:55:08.742Z,-3.02
2017-11-13T12:56:09.348Z,-3.02
2017-11-13T12:57:09.987Z,-2.97
2017-11-13T12:58:10.597Z,-2.77
2017-11-13T12:59:11.240Z,-2.73
2017-11-13T13:00:11.841Z,-2.73